Time;durP1;ratioP1;P1;durP2;ratioP2;P2;SDS_P1;SDS_P2;PMS_P1;PMS_P2;Temp;Humidity;BMP_temperature;BMP_pressure;BME280_temperature;BME280_humidity;BME280_pressure;Samples;Min_cycle;Max_cycle;Signal;HPM_P1;HPM_P2
2021/05/22 00:00:17;;;;;;;6.63;4.43;;;8.40;99.90;;;;;;5026532;28;20184;-65
2021/05/22 00:02:42;;;;;;;5.63;4.90;;;8.40;99.90;;;;;;5034243;28;20621;-64
2021/05/22 00:05:08;;;;;;;10.03;5.60;;;8.40;99.90;;;;;;5022386;28;20282;-65
2021/05/22 00:07:34;;;;;;;9.97;5.60;;;8.50;99.90;;;;;;5014241;28;20215;-65
2021/05/22 00:10:00;;;;;;;8.73;5.57;;;8.50;99.90;;;;;;5023845;28;20180;-65
2021/05/22 00:12:25;;;;;;;7.70;5.80;;;8.50;99.90;;;;;;5034094;28;20179;-66
2021/05/22 00:14:52;;;;;;;7.80;5.03;;;8.60;99.90;;;;;;5025710;28;20519;-64
2021/05/22 00:17:17;;;;;;;9.57;5.87;;;8.60;99.90;;;;;;5014462;28;20235;-65
2021/05/22 00:19:43;;;;;;;6.60;4.23;;;8.70;99.90;;;;;;5032474;28;20669;-64
2021/05/22 00:22:09;;;;;;;5.87;5.27;;;8.80;99.90;;;;;;5033979;28;20629;-65
2021/05/22 00:24:34;;;;;;;7.93;4.40;;;8.90;99.90;;;;;;5014882;28;20194;-65
2021/05/22 00:27:00;;;;;;;7.10;4.30;;;8.90;99.90;;;;;;5013872;28;20212;-65
2021/05/22 00:29:25;;;;;;;6.40;4.37;;;9.00;99.90;;;;;;5030740;28;20179;-64
2021/05/22 00:31:51;;;;;;;6.07;4.10;;;9.00;99.90;;;;;;5029417;28;20531;-64
2021/05/22 00:34:17;;;;;;;6.70;4.00;;;9.10;99.90;;;;;;5013885;28;20611;-65
2021/05/22 00:36:42;;;;;;;7.17;4.17;;;9.20;99.90;;;;;;5015659;28;20188;-65
2021/05/22 00:39:08;;;;;;;10.17;4.03;;;9.20;99.90;;;;;;5033535;28;20191;-65
2021/05/22 00:41:34;;;;;;;6.77;5.30;;;9.10;99.90;;;;;;5032666;28;20266;-64
2021/05/22 00:43:59;;;;;;;9.60;4.20;;;9.20;99.90;;;;;;5013810;28;20184;-65
2021/05/22 00:46:25;;;;;;;6.40;4.00;;;9.20;99.90;;;;;;5013499;28;20246;-65
2021/05/22 00:48:50;;;;;;;5.40;4.67;;;9.10;99.90;;;;;;5031812;28;20207;-65
2021/05/22 00:51:16;;;;;;;5.40;3.77;;;9.10;99.90;;;;;;5033014;28;20262;-65
2021/05/22 00:53:42;;;;;;;6.43;4.47;;;9.10;99.90;;;;;;5016497;28;20263;-64
2021/05/22 00:56:07;;;;;;;7.67;4.03;;;9.00;99.90;;;;;;5013654;28;20211;-65
2021/05/22 00:58:34;;;;;;;5.87;4.10;;;9.10;99.90;;;;;;5027127;28;20202;-65
2021/05/22 01:01:00;;;;;;;6.03;3.90;;;9.00;99.90;;;;;;5032887;28;20241;-65
2021/05/22 01:03:27;;;;;;;5.37;4.13;;;9.00;99.90;;;;;;5019231;28;20227;-66
2021/05/22 01:06:10;;;;;;;9.17;4.17;;;9.00;99.90;;;;;;5013365;28;20176;-65
2021/05/22 01:08:37;;;;;;;8.07;4.00;;;9.00;99.90;;;;;;5025518;28;20562;-65
2021/05/22 01:11:10;;;;;;;6.00;4.13;;;9.00;99.90;;;;;;5012881;28;20673;-65
2021/05/22 01:13:38;;;;;;;4.67;4.23;;;9.00;99.90;;;;;;5026830;28;20674;-65
2021/05/22 01:16:05;;;;;;;4.03;3.63;;;9.10;99.90;;;;;;5033122;28;20176;-65
2021/05/22 01:18:31;;;;;;;7.80;4.07;;;9.00;99.90;;;;;;5019934;28;20211;-65
2021/05/22 01:20:59;;;;;;;8.87;3.87;;;9.10;99.90;;;;;;5012632;28;20172;-65
2021/05/22 01:23:38;;;;;;;5.87;3.80;;;9.10;99.90;;;;;;5023944;28;20267;-65
2021/05/22 01:26:06;;;;;;;4.83;3.90;;;9.10;99.90;;;;;;5032767;28;20321;-65
2021/05/22 01:28:34;;;;;;;8.83;4.10;;;9.20;99.90;;;;;;5019565;28;20204;-65
2021/05/22 01:31:00;;;;;;;5.83;4.23;;;9.10;99.90;;;;;;5012492;28;20223;-65
2021/05/22 01:33:26;;;;;;;5.90;4.07;;;9.10;99.90;;;;;;5022614;28;20228;-65
2021/05/22 01:35:52;;;;;;;4.00;3.57;;;9.10;99.90;;;;;;5031770;28;20688;-65
2021/05/22 01:38:17;;;;;;;8.07;3.80;;;9.20;99.90;;;;;;5023394;28;20204;-65
2021/05/22 01:40:43;;;;;;;4.13;3.70;;;9.20;99.90;;;;;;5012166;28;20638;-65
2021/05/22 01:43:09;;;;;;;6.20;3.90;;;9.10;99.90;;;;;;5019173;28;20184;-65
2021/05/22 01:45:41;;;;;;;6.37;3.57;;;9.00;99.90;;;;;;5032533;28;20266;-65
2021/05/22 01:48:13;;;;;;;6.27;4.30;;;8.80;99.90;;;;;;5030637;28;20859;-65
2021/05/22 01:50:43;;;;;;;7.13;4.30;;;8.70;99.90;;;;;;5032182;28;20179;-65
2021/05/22 01:53:11;;;;;;;6.07;4.13;;;8.70;99.90;;;;;;5014922;28;20216;-65
2021/05/22 01:55:41;;;;;;;9.63;4.43;;;8.60;99.90;;;;;;5012488;28;20175;-65
2021/05/22 01:58:09;;;;;;;6.17;3.60;;;8.50;99.90;;;;;;5028315;28;20622;-65
2021/05/22 02:00:35;;;;;;;7.93;4.00;;;8.50;99.90;;;;;;5031063;28;20179;-65
2021/05/22 02:03:11;;;;;;;14.07;4.83;;;8.40;99.90;;;;;;5016860;28;20195;-64
2021/05/22 02:05:38;;;;;;;5.20;3.70;;;8.40;99.90;;;;;;5012465;28;20176;-65
2021/05/22 02:08:09;;;;;;;6.57;3.73;;;8.30;99.90;;;;;;5026333;28;20452;-70
2021/05/22 02:10:35;;;;;;;10.10;4.17;;;8.30;99.90;;;;;;5032850;28;20182;-69
2021/05/22 02:13:03;;;;;;;7.27;4.63;;;8.40;99.90;;;;;;5019100;28;20180;-71
2021/05/22 02:15:31;;;;;;;7.20;4.57;;;8.40;99.90;;;;;;5012912;28;20815;-71
2021/05/22 02:17:57;;;;;;;6.80;3.80;;;8.60;99.90;;;;;;5025845;28;20219;-67
2021/05/22 02:20:25;;;;;;;7.47;4.13;;;8.60;99.90;;;;;;5032904;28;20189;-70
2021/05/22 02:22:53;;;;;;;5.57;3.97;;;8.60;99.90;;;;;;5020661;28;20196;-70
2021/05/22 02:25:19;;;;;;;5.47;4.50;;;8.60;99.90;;;;;;5013727;28;20176;-69
2021/05/22 02:27:46;;;;;;;5.83;4.13;;;8.60;99.90;;;;;;5022263;28;20253;-70
2021/05/22 02:30:15;;;;;;;6.00;4.93;;;8.50;99.90;;;;;;5033450;28;20604;-71
2021/05/22 02:32:44;;;;;;;5.83;4.50;;;8.40;99.90;;;;;;5030541;28;20179;-70
2021/05/22 02:35:11;;;;;;;5.83;4.27;;;8.30;99.90;;;;;;5033307;28;20175;-70
2021/05/22 02:37:38;;;;;;;7.47;4.23;;;8.20;99.90;;;;;;5019464;28;20212;-68
2021/05/22 02:40:25;;;;;;;5.53;4.50;;;8.20;99.90;;;;;;5013431;28;20203;-70
2021/05/22 02:43:01;;;;;;;4.63;4.23;;;8.20;99.90;;;;;;5031504;28;20186;-70
2021/05/22 02:45:28;;;;;;;6.10;3.90;;;8.10;99.90;;;;;;5033682;28;20800;-69
2021/05/22 02:47:56;;;;;;;7.30;4.30;;;8.10;99.90;;;;;;5013974;28;20208;-70
2021/05/22 02:50:24;;;;;;;7.90;4.70;;;8.10;99.90;;;;;;5013104;28;20575;-71
2021/05/22 02:52:52;;;;;;;5.53;4.43;;;8.10;99.90;;;;;;5030468;28;20180;-70
2021/05/22 02:55:18;;;;;;;6.10;4.27;;;8.10;99.90;;;;;;5031839;28;20195;-71
2021/05/22 02:57:46;;;;;;;5.40;4.63;;;8.10;99.90;;;;;;5014861;28;20266;-70
2021/05/22 03:00:13;;;;;;;6.30;4.20;;;8.00;99.90;;;;;;5012131;28;20217;-72
2021/05/22 03:02:40;;;;;;;6.20;4.37;;;8.00;99.90;;;;;;5028607;28;20195;-70
2021/05/22 03:05:07;;;;;;;5.93;4.60;;;8.00;99.90;;;;;;5033111;28;20641;-69
2021/05/22 03:07:36;;;;;;;7.97;4.30;;;7.90;99.90;;;;;;5018144;28;20588;-68
2021/05/22 03:10:03;;;;;;;6.83;4.97;;;7.90;99.90;;;;;;5013247;28;20611;-69
2021/05/22 03:12:33;;;;;;;6.27;4.30;;;7.90;99.90;;;;;;5025715;28;20180;-70
2021/05/22 03:14:59;;;;;;;5.03;4.53;;;7.90;99.90;;;;;;5033111;28;20175;-71
2021/05/22 03:17:25;;;;;;;7.97;4.43;;;7.80;99.90;;;;;;5019250;28;20715;-70
2021/05/22 03:19:51;;;;;;;5.33;4.53;;;7.80;99.90;;;;;;5013370;28;20180;-70
2021/05/22 03:22:17;;;;;;;8.80;4.57;;;7.80;99.90;;;;;;5023888;28;20188;-71
2021/05/22 03:24:42;;;;;;;11.27;5.70;;;7.80;99.90;;;;;;5033073;28;20554;-72
2021/05/22 03:27:08;;;;;;;7.97;4.73;;;7.80;99.90;;;;;;5026053;28;20215;-71
2021/05/22 03:29:34;;;;;;;7.87;4.97;;;7.80;99.90;;;;;;5015773;28;20207;-70
2021/05/22 03:32:00;;;;;;;6.20;4.53;;;7.90;99.90;;;;;;5023173;28;20186;-70
2021/05/22 03:34:26;;;;;;;6.73;4.57;;;7.90;99.90;;;;;;5036436;28;20194;-69
2021/05/22 03:36:52;;;;;;;6.30;4.87;;;7.90;99.90;;;;;;5030952;28;20195;-71
2021/05/22 03:39:18;;;;;;;6.67;4.27;;;8.00;99.90;;;;;;5016552;28;20188;-71
2021/05/22 03:41:44;;;;;;;5.53;4.07;;;8.00;99.90;;;;;;5025834;28;20523;-70
2021/05/22 03:44:10;;;;;;;10.00;4.50;;;8.10;99.90;;;;;;5035365;28;20222;-67
2021/05/22 03:46:36;;;;;;;6.17;4.83;;;8.10;99.90;;;;;;5028087;28;20683;-71
2021/05/22 03:49:02;;;;;;;7.33;5.93;;;8.10;99.90;;;;;;5016415;28;20176;-71
2021/05/22 03:51:28;;;;;;;9.67;4.20;;;8.20;99.90;;;;;;5022245;28;20272;-70
2021/05/22 03:53:54;;;;;;;8.90;4.30;;;8.20;99.90;;;;;;5034892;28;20668;-72
2021/05/22 03:56:19;;;;;;;6.63;4.80;;;8.20;99.90;;;;;;5031231;28;20229;-71
2021/05/22 03:58:45;;;;;;;5.87;5.13;;;8.20;99.90;;;;;;5014681;28;20192;-69
2021/05/22 04:01:11;;;;;;;9.40;4.67;;;8.30;99.90;;;;;;5019101;28;20199;-64
2021/05/22 04:03:37;;;;;;;7.13;5.00;;;8.50;99.90;;;;;;5034627;28;20792;-64
2021/05/22 04:06:03;;;;;;;6.67;5.73;;;8.60;99.90;;;;;;5031832;28;20286;-65
2021/05/22 04:08:29;;;;;;;12.33;5.50;;;8.70;99.90;;;;;;5023809;28;20219;-65
2021/05/22 04:10:55;;;;;;;7.23;4.33;;;8.80;99.90;;;;;;5032835;28;20184;-65
2021/05/22 04:13:21;;;;;;;7.83;4.43;;;8.90;99.90;;;;;;5013631;28;20181;-64
2021/05/22 04:15:47;;;;;;;10.20;4.87;;;9.10;99.90;;;;;;5013776;28;20180;-65
2021/05/22 04:18:13;;;;;;;7.20;3.80;;;9.20;99.90;;;;;;5058943;22;20230;-66
2021/05/22 04:20:39;;;;;;;11.30;4.47;;;9.30;99.90;;;;;;5073428;28;20291;-66
2021/05/22 04:23:05;;;;;;;6.50;4.60;;;9.50;99.90;;;;;;5073035;28;20243;-66
2021/05/22 04:25:30;;;;;;;8.07;4.83;;;9.50;99.90;;;;;;5073505;28;20213;-65
2021/05/22 04:27:56;;;;;;;5.30;3.83;;;9.60;99.90;;;;;;5058939;28;20207;-65
2021/05/22 04:30:22;;;;;;;7.93;4.07;;;9.70;99.90;;;;;;5058342;28;20197;-64
2021/05/22 04:32:48;;;;;;;4.50;3.90;;;9.80;99.90;;;;;;5073633;28;20190;-64
2021/05/22 04:35:14;;;;;;;9.43;4.50;;;9.90;99.90;;;;;;5070047;28;20539;-66
2021/05/22 04:37:40;;;;;;;5.80;3.87;;;10.10;99.90;;;;;;5052901;28;20201;-65
2021/05/22 04:40:06;;;;;;;6.77;4.27;;;10.20;99.90;;;;;;5054864;28;20183;-65
2021/05/22 04:42:32;;;;;;;5.50;3.97;;;10.30;99.90;;;;;;5073417;28;20178;-66
2021/05/22 04:44:59;;;;;;;6.50;3.90;;;10.40;99.90;;;;;;5073196;28;20659;-64
2021/05/22 04:47:24;;;;;;;6.43;4.37;;;10.50;99.90;;;;;;5035219;28;20206;-66
2021/05/22 04:49:50;;;;;;;9.57;4.37;;;10.60;99.90;;;;;;5053207;28;20170;-65
2021/05/22 04:52:16;;;;;;;8.67;7.77;;;10.70;99.90;;;;;;5071708;28;20256;-66
2021/05/22 04:54:42;;;;;;;5.23;4.10;;;10.80;99.90;;;;;;5071879;28;20257;-66
2021/05/22 04:57:07;;;;;;;6.83;3.93;;;10.90;99.90;;;;;;5069438;28;20186;-66
2021/05/22 04:59:33;;;;;;;10.10;4.20;;;10.90;99.90;;;;;;5060785;28;20183;-65
2021/05/22 05:01:59;;;;;;;6.83;4.37;;;11.00;99.90;;;;;;5052875;28;20694;-65
2021/05/22 05:04:24;;;;;;;5.80;3.93;;;11.10;99.90;;;;;;5062319;28;20186;-66
2021/05/22 05:06:51;;;;;;;8.43;4.17;;;11.20;99.90;;;;;;5073100;28;20205;-66
2021/05/22 05:09:17;;;;;;;9.53;4.40;;;11.20;99.90;;;;;;5064498;28;20187;-66
2021/05/22 05:11:42;;;;;;;5.83;4.30;;;11.30;99.90;;;;;;5052742;28;20171;-65
2021/05/22 05:14:08;;;;;;;6.67;3.97;;;11.30;99.90;;;;;;5058870;28;20629;-66
2021/05/22 05:16:33;;;;;;;7.50;4.00;;;11.30;99.90;;;;;;5072793;28;20253;-66
2021/05/22 05:18:59;;;;;;;6.93;4.30;;;11.30;99.90;;;;;;5067974;28;20209;-64
2021/05/22 05:21:25;;;;;;;5.53;3.90;;;11.30;99.90;;;;;;5052318;28;20170;-66
2021/05/22 05:23:51;;;;;;;9.47;4.13;;;11.30;99.90;;;;;;5055253;28;20222;-64
2021/05/22 05:26:17;;;;;;;7.67;5.20;;;11.40;99.90;;;;;;5072522;28;20186;-66
2021/05/22 05:28:42;;;;;;;5.40;3.80;;;11.40;99.90;;;;;;5071274;28;20565;-66
2021/05/22 05:31:08;;;;;;;7.03;4.33;;;11.50;99.90;;;;;;5071720;28;20170;-66
2021/05/22 05:33:33;;;;;;;7.80;4.30;;;11.60;99.90;;;;;;5072463;28;20189;-65
2021/05/22 05:35:59;;;;;;;5.40;4.30;;;11.70;99.90;;;;;;5052914;28;20213;-66
2021/05/22 05:38:25;;;;;;;7.10;3.70;;;11.90;99.90;;;;;;5052233;28;20198;-66
2021/05/22 05:40:54;;;;;;;10.93;4.40;;;12.00;99.90;;;;;;5067839;28;20182;-66
2021/05/22 05:43:20;;;;;;;4.77;3.83;;;12.20;99.90;;;;;;5071950;28;20635;-65
2021/05/22 05:45:45;;;;;;;7.80;4.17;;;12.40;99.90;;;;;;5055566;28;20257;-66
2021/05/22 05:48:11;;;;;;;7.57;4.23;;;12.60;99.90;;;;;;5052016;28;20233;-66
2021/05/22 05:50:37;;;;;;;5.67;4.77;;;12.70;99.90;;;;;;5064289;28;20174;-66
2021/05/22 05:53:03;;;;;;;6.20;5.67;;;12.70;99.90;;;;;;5052169;28;20174;-65
2021/05/22 05:55:29;;;;;;;5.30;3.83;;;12.70;99.90;;;;;;5064519;28;20213;-66
2021/05/22 05:57:56;;;;;;;5.13;3.90;;;12.80;99.90;;;;;;5071934;28;20225;-66
2021/05/22 06:00:23;;;;;;;6.63;4.07;;;12.70;99.90;;;;;;5059174;28;20183;-66
2021/05/22 06:02:49;;;;;;;7.50;3.63;;;12.80;99.90;;;;;;5051820;28;20170;-66
2021/05/22 06:05:15;;;;;;;5.03;3.73;;;12.80;99.90;;;;;;5061538;28;20182;-66
2021/05/22 06:07:41;;;;;;;5.60;5.10;;;12.70;99.90;;;;;;5071517;28;20256;-66
2021/05/22 06:10:08;;;;;;;4.63;4.07;;;12.60;99.90;;;;;;5062846;28;20179;-65
2021/05/22 06:12:35;;;;;;;4.67;3.87;;;12.50;99.90;;;;;;5051543;28;20171;-66
2021/05/22 06:17:35;;;;;;;4.40;4.00;;;12.40;99.90;;;;;;5071381;28;20205;-67
2021/05/22 06:20:01;;;;;;;9.53;4.60;;;12.40;99.90;;;;;;5064911;28;20277;-66
2021/05/22 06:22:26;;;;;;;5.23;3.83;;;12.40;99.90;;;;;;5051491;28;20202;-67
2021/05/22 06:24:52;;;;;;;4.03;3.60;;;12.40;99.90;;;;;;5055983;28;20182;-67
2021/05/22 06:27:18;;;;;;;6.07;4.10;;;12.40;99.90;;;;;;5071120;28;20209;-65
2021/05/22 06:29:43;;;;;;;6.03;5.37;;;12.40;99.90;;;;;;5060469;28;20214;-65
2021/05/22 06:32:09;;;;;;;6.80;4.20;;;12.30;99.90;;;;;;5051320;28;20167;-65
2021/05/22 06:34:35;;;;;;;5.67;4.90;;;12.40;99.90;;;;;;5059968;28;20755;-67
2021/05/22 06:37:01;;;;;;;9.57;4.20;;;12.40;99.90;;;;;;5071494;28;20239;-66
2021/05/22 06:39:27;;;;;;;5.50;3.93;;;12.40;99.90;;;;;;5067426;28;20178;-66
2021/05/22 06:41:52;;;;;;;7.10;6.10;;;12.50;99.90;;;;;;5051200;28;20206;-67
2021/05/22 06:44:28;;;;;;;4.80;4.40;;;12.50;99.90;;;;;;5052575;28;20228;-66
2021/05/22 06:46:53;;;;;;;4.70;3.87;;;12.50;99.90;;;;;;5051329;28;20220;-66
2021/05/22 06:49:19;;;;;;;7.50;4.73;;;12.60;99.90;;;;;;5055826;28;20190;-66
2021/05/22 06:51:45;;;;;;;4.90;4.40;;;12.50;99.90;;;;;;5071122;28;20166;-67
2021/05/22 06:54:11;;;;;;;5.83;4.00;;;12.40;99.90;;;;;;5054903;28;20171;-66
2021/05/22 06:56:37;;;;;;;7.63;4.23;;;12.40;99.90;;;;;;5051224;28;20205;-66
2021/05/22 06:59:04;;;;;;;7.67;4.13;;;12.20;99.90;;;;;;5068763;28;20194;-66
2021/05/22 07:01:30;;;;;;;4.10;3.73;;;12.10;99.90;;;;;;5071799;28;20541;-66
2021/05/22 07:03:56;;;;;;;5.57;4.13;;;11.90;99.90;;;;;;5059016;28;20590;-66
2021/05/22 07:06:23;;;;;;;4.33;3.93;;;11.90;99.90;;;;;;5061659;28;20232;-67
2021/05/22 07:08:53;;;;;;;5.83;4.10;;;11.80;99.90;;;;;;5055009;28;20258;-65
2021/05/22 07:11:19;;;;;;;7.47;4.40;;;11.80;99.90;;;;;;5054526;28;20166;-65
2021/05/22 07:13:45;;;;;;;5.90;4.10;;;11.80;99.90;;;;;;5054427;28;20167;-66
2021/05/22 07:16:10;;;;;;;4.73;4.20;;;11.80;99.90;;;;;;5071962;28;20213;-64
2021/05/22 07:18:36;;;;;;;7.13;4.00;;;11.80;99.90;;;;;;5074697;28;20263;-66
2021/05/22 07:21:01;;;;;;;9.47;4.47;;;12.00;99.90;;;;;;5074706;28;20646;-66
2021/05/22 07:23:27;;;;;;;8.80;8.10;;;11.90;99.90;;;;;;5074584;28;20174;-65
2021/05/22 07:25:53;;;;;;;7.40;6.70;;;12.00;99.90;;;;;;5074874;28;20576;-66
2021/05/22 07:28:18;;;;;;;5.43;4.53;;;12.00;99.90;;;;;;5074512;28;20251;-64
2021/05/22 07:30:44;;;;;;;5.33;4.90;;;12.00;99.90;;;;;;5074456;28;20620;-66
2021/05/22 07:33:10;;;;;;;7.23;5.03;;;12.00;99.90;;;;;;5074621;28;20623;-67
2021/05/22 07:35:35;;;;;;;6.27;5.67;;;12.00;99.90;;;;;;5074358;28;20182;-66
2021/05/22 07:38:01;;;;;;;5.90;4.63;;;12.10;99.90;;;;;;5074495;28;20683;-65
2021/05/22 07:40:27;;;;;;;4.43;3.80;;;12.10;99.90;;;;;;5074263;28;20185;-67
2021/05/22 07:42:52;;;;;;;8.57;4.10;;;12.10;99.90;;;;;;5074672;28;20879;-66
2021/05/22 07:45:18;;;;;;;6.23;4.53;;;12.10;99.90;;;;;;5074271;28;20507;-67
2021/05/22 07:47:45;;;;;;;8.77;4.20;;;12.20;99.90;;;;;;5074458;28;20568;-66
2021/05/22 07:50:11;;;;;;;5.67;3.90;;;12.20;99.90;;;;;;5074297;28;20162;-66
2021/05/22 07:52:38;;;;;;;5.47;4.80;;;12.10;99.90;;;;;;5074472;28;20165;-66
2021/05/22 07:55:04;;;;;;;5.43;4.13;;;11.90;99.90;;;;;;5072324;28;20170;-66
2021/05/22 07:57:30;;;;;;;4.80;4.40;;;11.80;99.90;;;;;;5073999;28;20197;-66
2021/05/22 07:59:56;;;;;;;5.20;4.00;;;11.60;99.90;;;;;;5074264;28;20665;-66
2021/05/22 08:02:21;;;;;;;6.63;4.10;;;11.50;99.90;;;;;;5054411;28;20170;-65
2021/05/22 08:04:47;;;;;;;5.80;4.00;;;11.50;99.90;;;;;;5066553;28;20609;-65
2021/05/22 08:07:13;;;;;;;4.60;4.20;;;11.50;99.90;;;;;;5073976;28;20210;-66
2021/05/22 08:09:39;;;;;;;5.20;4.50;;;11.50;99.90;;;;;;5073890;28;20177;-66
2021/05/22 08:12:05;;;;;;;5.87;4.33;;;11.50;99.90;;;;;;5072102;28;20631;-65
2021/05/22 08:14:30;;;;;;;5.43;3.87;;;11.50;99.90;;;;;;5052938;28;20601;-66
2021/05/22 08:16:56;;;;;;;6.77;4.43;;;11.60;99.90;;;;;;5053090;28;20206;-64
2021/05/22 08:19:23;;;;;;;5.27;3.80;;;11.70;99.90;;;;;;5054533;28;20221;-66
2021/05/22 08:21:48;;;;;;;4.03;3.67;;;11.80;99.90;;;;;;5059972;28;20181;-66
2021/05/22 08:24:14;;;;;;;5.83;3.87;;;12.00;99.90;;;;;;5073711;28;20170;-64
2021/05/22 08:26:42;;;;;;;9.13;3.90;;;12.20;99.90;;;;;;5064875;28;20557;-65
2021/05/22 08:29:09;;;;;;;6.53;4.10;;;12.50;99.90;;;;;;5053839;28;20222;-66
2021/05/22 08:31:35;;;;;;;7.00;5.90;;;12.70;99.90;;;;;;5060623;28;20209;-65
2021/05/22 08:34:00;;;;;;;5.27;3.73;;;12.90;99.90;;;;;;5074002;28;20586;-65
2021/05/22 08:36:27;;;;;;;4.60;4.20;;;13.00;99.90;;;;;;5067758;28;20203;-66
2021/05/22 08:38:53;;;;;;;6.77;4.30;;;13.00;99.90;;;;;;5053501;28;20205;-66
2021/05/22 08:41:19;;;;;;;5.50;3.90;;;13.00;99.90;;;;;;5038786;28;20193;-64
2021/05/22 08:43:47;;;;;;;6.57;5.40;;;12.80;99.90;;;;;;5073406;28;20182;-66
2021/05/22 08:46:13;;;;;;;5.43;4.57;;;12.70;99.90;;;;;;5061299;28;20179;-65
2021/05/22 08:48:39;;;;;;;9.50;4.20;;;12.60;99.90;;;;;;5053149;28;20280;-66
2021/05/22 08:51:06;;;;;;;7.93;5.10;;;12.50;99.90;;;;;;5066722;28;20178;-65
2021/05/22 08:53:32;;;;;;;4.47;3.73;;;12.50;99.90;;;;;;5073002;28;20174;-66
2021/05/22 08:55:57;;;;;;;5.10;4.07;;;12.50;99.90;;;;;;5060828;28;20261;-66
2021/05/22 08:58:23;;;;;;;5.53;4.40;;;12.60;99.90;;;;;;5053145;28;20183;-65
2021/05/22 09:00:49;;;;;;;4.90;4.10;;;12.60;99.90;;;;;;5062968;28;20269;-66
2021/05/22 09:03:14;;;;;;;5.90;3.97;;;12.60;99.90;;;;;;5073072;28;20257;-66
2021/05/22 09:05:44;;;;;;;3.50;3.20;;;12.60;99.90;;;;;;5071064;28;20186;-66
2021/05/22 09:08:14;;;;;;;5.47;4.27;;;12.70;99.90;;;;;;5072797;28;20194;-65
2021/05/22 09:10:42;;;;;;;10.13;9.20;;;12.80;99.90;;;;;;5064464;28;20605;-66
2021/05/22 09:13:20;;;;;;;4.60;4.20;;;12.90;99.90;;;;;;5052871;28;20171;-66
2021/05/22 09:15:48;;;;;;;5.50;4.23;;;12.90;99.90;;;;;;5060382;28;20174;-65
2021/05/22 09:18:16;;;;;;;4.97;4.47;;;13.10;99.90;;;;;;5071900;28;20226;-64
2021/05/22 09:20:42;;;;;;;7.00;4.10;;;13.30;99.90;;;;;;5070150;28;20178;-65
2021/05/22 09:23:13;;;;;;;8.17;7.47;;;13.40;99.90;;;;;;5072522;28;20236;-65
2021/05/22 09:25:41;;;;;;;4.80;4.33;;;13.40;99.90;;;;;;5071598;28;20173;-65
2021/05/22 09:28:09;;;;;;;8.80;7.47;;;13.40;99.90;;;;;;5072465;28;20213;-66
2021/05/22 09:30:37;;;;;;;4.97;4.57;;;13.40;99.90;;;;;;5067460;28;20723;-66
2021/05/22 09:33:09;;;;;;;8.17;4.87;;;13.50;99.90;;;;;;5052502;28;20179;-65
2021/05/22 09:35:34;;;;;;;7.37;6.87;;;13.70;99.90;;;;;;5055597;28;20269;-66
2021/05/22 09:38:01;;;;;;;6.00;5.47;;;13.60;99.90;;;;;;5072354;28;20738;-65
2021/05/22 09:40:35;;;;;;;6.73;5.47;;;13.50;99.90;;;;;;5069917;28;20265;-66
2021/05/22 09:43:04;;;;;;;6.63;5.10;;;13.60;99.90;;;;;;5052122;28;20252;-65
2021/05/22 09:45:33;;;;;;;8.60;5.53;;;13.60;99.90;;;;;;5052983;28;20233;-66
2021/05/22 09:48:09;;;;;;;6.13;4.77;;;13.70;99.90;;;;;;5052123;28;20206;-66
2021/05/22 09:50:54;;;;;;;7.67;5.43;;;13.60;99.90;;;;;;5053072;28;20261;-66
2021/05/22 09:53:36;;;;;;;5.83;4.60;;;13.50;99.90;;;;;;5071827;28;20542;-67
2021/05/22 09:56:21;;;;;;;9.50;6.80;;;13.60;99.90;;;;;;5071624;28;20388;-66
2021/05/22 09:58:50;;;;;;;6.57;5.97;;;13.60;99.90;;;;;;5071238;28;20194;-65
2021/05/22 10:01:18;;;;;;;6.23;5.63;;;13.60;99.90;;;;;;5051709;28;20206;-66
2021/05/22 10:03:44;;;;;;;9.23;6.90;;;13.60;99.90;;;;;;5051874;28;20590;-66
2021/05/22 10:06:11;;;;;;;10.50;9.70;;;13.60;99.90;;;;;;5071129;28;20206;-66
2021/05/22 10:08:38;;;;;;;7.83;7.03;;;13.70;99.90;;;;;;5071658;28;20714;-65
2021/05/22 10:11:04;;;;;;;6.47;5.70;;;13.70;99.90;;;;;;5053409;28;20269;-66
2021/05/22 10:13:29;;;;;;;8.73;5.03;;;13.80;99.90;;;;;;5051630;28;20246;-65
2021/05/22 10:15:58;;;;;;;8.43;7.63;;;14.20;99.90;;;;;;5067651;28;20547;-65
2021/05/22 10:18:26;;;;;;;5.63;4.67;;;14.50;99.90;;;;;;5072036;28;20210;-66
2021/05/22 10:20:54;;;;;;;5.93;5.60;;;14.70;99.90;;;;;;5056407;28;20213;-66
2021/05/22 10:23:20;;;;;;;9.40;7.50;;;14.80;99.90;;;;;;5051930;28;20179;-66
2021/05/22 10:25:48;;;;;;;15.87;12.20;;;14.70;99.90;;;;;;5065028;28;20264;-66
2021/05/22 10:28:14;;;;;;;10.03;9.13;;;14.70;99.90;;;;;;5071786;28;20206;-65
2021/05/22 10:30:40;;;;;;;7.20;5.93;;;14.80;99.90;;;;;;5059182;28;20187;-65
2021/05/22 10:33:08;;;;;;;5.17;4.87;;;14.80;99.90;;;;;;5051786;28;20174;-65
2021/05/22 10:35:49;;;;;;;8.27;6.23;;;14.70;99.90;;;;;;5055402;28;20171;-65
2021/05/22 10:38:32;;;;;;;11.50;5.60;;;14.80;99.90;;;;;;5051430;28;20646;-65
2021/05/22 10:41:05;;;;;;;15.10;9.53;;;14.80;99.90;;;;;;5069021;28;20699;-65
2021/05/22 10:44:00;;;;;;;7.30;4.10;;;14.80;99.90;;;;;;5071582;28;20764;-65
2021/05/22 10:46:26;;;;;;;12.03;8.10;;;14.80;99.90;;;;;;5051436;28;20187;-66
2021/05/22 10:48:59;;;;;;;11.00;6.87;;;15.00;99.90;;;;;;5051302;28;20241;-65
2021/05/22 10:51:36;;;;;;;5.47;4.10;;;15.00;99.90;;;;;;5067263;28;20674;-65
2021/05/22 10:54:13;;;;;;;7.87;3.83;;;14.90;99.90;;;;;;5067088;28;20169;-65
2021/05/22 10:57:01;;;;;;;9.73;8.93;;;15.00;99.90;;;;;;5071649;28;20166;-65
2021/05/22 10:59:27;;;;;;;5.87;4.97;;;14.90;99.90;;;;;;5063528;28;20261;-66
2021/05/22 11:01:53;;;;;;;12.67;12.00;;;14.80;99.90;;;;;;5051305;28;20198;-65
2021/05/22 11:04:23;;;;;;;11.40;9.73;;;14.70;99.90;;;;;;5056683;28;20178;-65
2021/05/22 11:06:56;;;;;;;10.50;9.60;;;14.70;99.90;;;;;;5071342;28;20281;-66
2021/05/22 11:09:31;;;;;;;7.97;7.00;;;14.70;99.90;;;;;;5069440;28;20221;-66
2021/05/22 11:12:05;;;;;;;12.63;7.17;;;14.90;99.90;;;;;;5071084;28;20158;-65
2021/05/22 11:14:42;;;;;;;11.80;7.40;;;14.90;99.90;;;;;;5063483;28;20203;-66
2021/05/22 11:17:25;;;;;;;6.83;4.53;;;15.10;99.90;;;;;;5051136;28;20663;-65
2021/05/22 11:22:27;;;;;;;7.13;6.33;;;16.20;99.90;;;;;;5062290;28;20636;-66
2021/05/22 11:25:02;;;;;;;9.23;5.87;;;16.60;99.90;;;;;;5051375;28;20512;-66
2021/05/22 11:27:49;;;;;;;9.30;5.93;;;17.00;99.90;;;;;;5058863;28;20201;-65
2021/05/22 11:30:16;;;;;;;14.47;6.40;;;17.20;99.90;;;;;;5070961;28;20676;-66
2021/05/22 11:32:48;;;;;;;10.83;6.90;;;17.20;99.90;;;;;;5061246;28;20312;-65
2021/05/22 11:35:30;;;;;;;10.53;5.23;;;17.40;99.90;;;;;;5051128;28;20640;-66
2021/05/22 11:38:19;;;;;;;9.53;4.77;;;17.30;99.90;;;;;;5061716;28;20248;-66
2021/05/22 11:40:45;;;;;;;7.00;5.47;;;17.10;99.90;;;;;;5070770;28;20218;-66
2021/05/22 11:43:25;;;;;;;6.40;4.57;;;16.80;99.90;;;;;;5058587;28;20664;-65
2021/05/22 11:45:59;;;;;;;7.80;4.83;;;16.70;99.90;;;;;;5051181;28;20173;-66
2021/05/22 11:48:49;;;;;;;13.80;12.63;;;16.70;99.90;;;;;;5066963;28;20247;-66
2021/05/22 11:51:27;;;;;;;6.53;4.13;;;16.50;99.90;;;;;;5074575;28;20171;-66
2021/05/22 11:54:01;;;;;;;9.27;8.23;;;16.50;99.90;;;;;;5056032;28;20179;-66
2021/05/22 11:56:33;;;;;;;7.77;6.23;;;16.20;99.90;;;;;;5054623;28;20523;-66
2021/05/22 11:58:59;;;;;;;11.50;8.20;;;15.90;99.90;;;;;;5073232;28;20202;-65
2021/05/22 12:01:30;;;;;;;8.30;5.40;;;15.70;99.90;;;;;;5074145;28;20271;-66
2021/05/22 12:04:02;;;;;;;9.10;5.17;;;15.50;99.90;;;;;;5056531;28;20694;-66
2021/05/22 12:06:32;;;;;;;9.93;5.20;;;15.30;99.90;;;;;;5054243;28;20636;-65
2021/05/22 12:09:07;;;;;;;8.33;4.43;;;15.30;99.90;;;;;;5071824;28;20568;-66
2021/05/22 12:11:36;;;;;;;5.93;4.10;;;15.30;99.90;;;;;;5073816;28;20174;-66
2021/05/22 12:14:05;;;;;;;10.93;7.77;;;15.50;99.90;;;;;;5056557;28;20178;-66
2021/05/22 12:16:31;;;;;;;8.33;4.87;;;15.70;99.90;;;;;;5054402;28;20167;-66
2021/05/22 12:18:57;;;;;;;10.50;5.43;;;15.90;99.90;;;;;;5052164;28;20251;-65
2021/05/22 12:21:29;;;;;;;9.07;4.70;;;16.20;99.90;;;;;;5074059;28;20170;-65
2021/05/22 12:24:02;;;;;;;9.53;6.87;;;16.30;99.90;;;;;;5058866;28;20171;-66
2021/05/22 12:26:28;;;;;;;11.85;10.90;;;16.60;99.90;;;;;;5054392;28;20571;-66
2021/05/22 12:28:54;;;;;;;8.77;7.97;;;16.80;99.90;;;;;;5068391;28;20441;-66
2021/05/22 12:31:20;;;;;;;7.47;5.80;;;17.00;99.90;;;;;;5073532;28;20171;-66
2021/05/22 12:33:59;;;;;;;7.03;6.33;;;17.30;99.90;;;;;;5060573;28;20191;-66
2021/05/22 12:36:25;;;;;;;8.90;6.90;;;17.30;99.90;;;;;;5053950;28;20182;-65
2021/05/22 12:38:51;;;;;;;7.07;4.37;;;17.40;99.90;;;;;;5066904;28;20189;-65
2021/05/22 12:41:32;;;;;;;14.23;12.80;;;17.50;99.90;;;;;;5073445;28;20556;-64
2021/05/22 12:43:58;;;;;;;10.13;5.87;;;17.50;99.90;;;;;;5059862;28;20734;-66
2021/05/22 12:46:26;;;;;;;8.50;6.13;;;17.50;99.90;;;;;;5053541;28;20242;-64
2021/05/22 12:49:05;;;;;;;7.37;4.80;;;17.60;99.90;;;;;;5065523;28;20217;-66
2021/05/22 12:51:30;;;;;;;6.17;4.70;;;17.80;99.90;;;;;;5073294;28;20167;-66
2021/05/22 12:53:56;;;;;;;9.17;4.60;;;17.40;99.90;;;;;;5071912;28;20676;-66
2021/05/22 12:56:22;;;;;;;12.40;11.43;;;17.30;99.90;;;;;;5073353;28;20174;-65